White Bluff, TN (37187)

5:36 AM CDT en Marzo 29, 2015 (GMT -0500)
On the Trace | | Change Station
CLOSE
Current Station
Estación meteorológica personal
Location: White Bluff, TN
Altura: 805 ft
Estaciones meteorológicas cercanas
Aviso en curso: Hard Freeze Warning

Alt 805 ft 36.11 °N, 87.21 °W | Updated 0 second ago

Despejado
Despejado
26.9 ° F
Sensación térmica 27 ° F
N
2.3
Viento Variable Viento desde Sur
Gusts 5.7 mph

Hoy
Alta -- | Baja -- ° F
--% Posibilidad de precipitaciones
Ayer
Alta -- | Baja -- ° F
Precip. -- pul
6:39 AM 7:08 PM
Gibosa creciente, 70% visible
Presión 30.34 pul
Visibilidad 10.0 Millas
Nubes Despejado
Vientos helados 27 ° F
Punto de rocío 16 ° F
Humedad 64%
Precipitaciones 0.00 pul
Espesor de la nieve No disponible.
UV 0 de una escala de 12
Polen 8.20 de una escala de 12
Calidad del aire No disponible.
Flu Activity No disponible.
METAR KBNA 290953Z 00000KT 10SM CLR M03/M06 A3033 RMK AO2 SLP273 T10331056

More Conditions Fewer Conditions

Presión 30.34 pul
Visibilidad 10.0 Millas
Nubes Despejado
Vientos helados 27 ° F
Punto de rocío 16 ° F
Humedad 64%
Precipitaciones 0.00 pul
Espesor de la nieve No disponible.
UV 0 de una escala de 12
Polen 8.20 de una escala de 12
Calidad del aire No disponible.
Flu Activity No disponible.
METAR KBNA 290953Z 00000KT 10SM CLR M03/M06 A3033 RMK AO2 SLP273 T10331056

More Conditions Fewer Conditions

10-Day Weather Forecast

Almanac

Astronomía

Mar. 29, 2015 Salida Puesta
Hora real
Crepúsculo civil
Crepúsculo náutico
Crepúsculo astronómico
Luna
Horas de luz
Horas de luz
Tomorrow will be .
, % of the Moon is Illuminated

Extremos de hoy

Máximos del estado Bajos del estado

Community

WunderPhotos

Upload Photos

1,809,213 ¡fotos cargadas!

WunderBlogs® & News

Nearby

Calidad del aire

  Calidad del aire Índice AQ Contaminante
Not available.

Grosos de nieve

Estación Profundido Altura

Actividad de terremotos

Ciudad Distance Mag. Tiempo y dato
Magnitud mínima muestra es 2,5.

Temperaturas de aguas costeras

Lugar Temperatura

Stations

Estaciones meteorológicas cercanas

Ubicación de la estación Temp. Vientos helados Punto de rocío Humedad Viento Precip. Alt Actualizado Tipo
                   
Hard Freeze Warning
Statement as of 3:47 AM CDT en Marzo 29, 2015

... Hard freeze warning remains in effect until 10 am CDT this
morning...

* temperature... 20 degrees to around 28 degrees.

* Impacts... outdoor sensitive vegetation is likely being damaged
and killed.


21